Friday, October 31, 2014
16:30 UTC
  |  Log In   |  Register Free
Airport Search:

Mount Sterling-Montgomery County Airport
(KIOB)

Mount Sterling-Montgomery County Airport Diagram
No Airport Diagram Available

FAA data valid effective September 18, 2014 - November 13, 2014 (unless otherwise noted).

 
 
 
 
 
 
 
 
 
 
 
 
 
 

Current Aviation Weather for Mount Sterling-Montgomery County Airport (KIOB)

The most recent METAR observation for KIOB was updated at: 1612
METAR Summary (Translated METAR)
KIOB
311555Z AUTO 25003KT 7SM RA BKN005 BKN017 OVC033 07/07 A2998 RMK AO2 P0002
KSYM
311550Z AUTO 22004KT 4SM -RA SCT005 BKN025 BKN031 07/06 A2999 RMK AO2 P0001
(20.8 nm NE from KIOB)
KLEX
311554Z 21004KT 5SM HZ OVC026 08/06 A2997 RMK AO2 SLP152 T00830056
(29.6 nm SW from KIOB)
TAF Summary (Translated TAF)
KSYM
(20.8 nm NE from KIOB)
151741Z 1518/1618 VRB03KT P6SM SCT045 FM160900 00000KT 3SM BR SCT030 FM161300 22004KT P6SM SKC
KLEX
(29.6 nm SW from KIOB)
311428Z 3114/0112 25005KT P6SM SCT025 BKN035 FM311700 29010G15KT P6SM VCSH OVC025 FM311900 31012G20KT 5SM -SHRA BR OVC015 FM010000 31015G28KT 5SM -RASN BR OVC015 FM010300 32015G24KT 3SM -SN BR OVC010
  Airport Weather Conditions for KIOB

 Current Weather at IOB
45° F
Rain
West winds at 3.5 mph
IOB NOAA Radar

Pressure: 29.98 in
Humidity: 100%
Wind: West at 3.5 MPH (3 KT)
Dew Point: 44.6°F
Visibility: 7.00 mi


Airport Weather Forecast for KIOB

Translated METAR and TAF for KIOB
Translated METAR for KIOB (1626 UTC 31 October 2014)
found at http://aviationweather.gov/adds/metars/
 
METAR text: KIOB 311615Z AUTO 26004KT 10SM DZ BKN007 BKN014 OVC033 07/07 A2998 RMK AO2
Conditions at: KIOB (MOUNT STERLING , KY, US) observed 1615 UTC 31 October 2014
Temperature: 7.0°C (45°F)
Dewpoint: 7.0°C (45°F) [RH = 100%]
Pressure (altimeter): 29.98 inches Hg (1015.3 mb)
Winds: from the W (260 degrees) at 5 MPH (4 knots; 2.1 m/s)
Visibility: 10 or more miles (16+ km)
Ceiling: 700 feet AGL
Clouds: broken clouds at 700 feet AGL
broken clouds at 1400 feet AGL
overcast cloud deck at 3300 feet AGL
Weather: DZ  (drizzle)
Translated TAF for KIOB

There is no translated TAF available for this airport

Find All Airport Services Find A Hotel Find A Rental Car Find A Golf Course Find A Restaurant $100 Hamburger



FBO's on the Field
FBO Company Facility Photos Services Transportation Aviation Fuel Prices: Prices include tax
Catering Weather Repair Courtesy Rental Type 100LL JetA JetA+ MOGAS 8087
 
Kentucky Airmotive Inc

This FBO has not yet been rated
FS:Shell
Last Updated: Oct-24
Login to update fuel prices
SS:
Contact Kentucky Airmotive IncMore FBO Information
 
Add another FBO Facility Photos Catering Weather Repair Courtesy Rental Type 100LL JetA JetA+ MOGAS 8087
Services Transportation Aviation Fuel Prices: Prices include tax


model-print
model-print
model-print
model-print